Time;durP1;ratioP1;P1;durP2;ratioP2;P2;SDS_P1;SDS_P2;PMS_P1;PMS_P2;Temp;Humidity;BMP_temperature;BMP_pressure;BME280_temperature;BME280_humidity;BME280_pressure;Samples;Min_cycle;Max_cycle;Signal;HPM_P1;HPM_P2
2023/04/22 00:00:44;;;;;;;;;;;11.30;99.90;;;;;;4844989;29;20039;-63
2023/04/22 00:03:09;;;;;;;;;;;11.20;99.90;;;;;;4843270;29;19922;-63
2023/04/22 00:05:36;;;;;;;;;;;11.20;99.90;;;;;;4842514;29;20297;-63
2023/04/22 00:08:02;;;;;;;;;;;11.20;99.90;;;;;;4846857;29;19964;-63
2023/04/22 00:10:28;;;;;;;;;;;11.20;99.90;;;;;;4850547;29;20655;-63
2023/04/22 00:12:53;;;;;;;;;;;11.10;99.90;;;;;;4848037;29;19928;-65
2023/04/22 00:15:20;;;;;;;;;;;11.10;99.90;;;;;;4849389;29;20007;-65
2023/04/22 00:17:49;;;;;;;;;;;11.10;99.90;;;;;;4846801;29;19923;-64
2023/04/22 00:20:15;;;;;;;;;;;11.10;99.90;;;;;;4840971;29;19920;-65
2023/04/22 00:22:41;;;;;;;;;;;11.00;99.90;;;;;;4846389;29;20003;-65
2023/04/22 00:25:06;;;;;;;;;;;10.90;99.90;;;;;;4849428;29;20147;-64
2023/04/22 00:27:32;;;;;;;;;;;10.80;99.90;;;;;;4846722;29;19927;-65
2023/04/22 00:29:57;;;;;;;;;;;10.70;99.90;;;;;;4849525;29;19919;-64
2023/04/22 00:32:23;;;;;;;;;;;10.60;99.90;;;;;;4842925;29;19919;-65
2023/04/22 00:34:49;;;;;;;;;;;10.50;99.90;;;;;;4839327;29;19920;-64
2023/04/22 00:37:14;;;;;;;;;;;10.50;99.90;;;;;;4841822;29;19913;-64
2023/04/22 00:39:40;;;;;;;;;;;10.40;99.90;;;;;;4833590;29;20300;-64
2023/04/22 00:42:06;;;;;;;;;;;10.40;99.90;;;;;;4847229;29;19915;-64
2023/04/22 00:44:32;;;;;;;;;;;10.40;99.90;;;;;;4847630;29;20373;-64
2023/04/22 00:46:58;;;;;;;;;;;10.30;99.90;;;;;;4844174;29;19941;-64
2023/04/22 00:49:26;;;;;;;;;;;10.30;99.90;;;;;;4841617;29;19985;-64
2023/04/22 00:51:51;;;;;;;;;;;10.30;99.90;;;;;;4842811;29;19932;-65
2023/04/22 00:54:17;;;;;;;;;;;10.20;99.90;;;;;;4827779;29;19920;-64
2023/04/22 00:56:43;;;;;;;;;;;10.20;99.90;;;;;;4838136;29;20143;-64
2023/04/22 00:59:09;;;;;;;;;;;10.10;99.90;;;;;;4844173;29;19927;-65
2023/04/22 01:01:35;;;;;;;;;;;10.00;99.90;;;;;;4843100;29;20006;-64
2023/04/22 01:04:01;;;;;;;;;;;9.90;99.90;;;;;;4839695;29;19915;-64
2023/04/22 01:06:28;;;;;;;;;;;9.90;99.90;;;;;;4846831;29;19928;-64
2023/04/22 01:08:54;;;;;;;;;;;9.80;99.90;;;;;;4824340;29;19920;-64
2023/04/22 01:11:20;;;;;;;;;;;9.80;99.90;;;;;;4846309;29;19909;-64
2023/04/22 01:13:46;;;;;;;;;;;9.80;99.90;;;;;;4842137;29;19942;-64
2023/04/22 01:16:11;;;;;;;;;;;9.80;99.90;;;;;;4839856;29;20282;-65
2023/04/22 01:18:37;;;;;;;;;;;9.80;99.90;;;;;;4833880;29;19916;-65
2023/04/22 01:21:03;;;;;;;;;;;9.80;99.90;;;;;;4834015;29;19927;-65
2023/04/22 01:23:29;;;;;;;;;;;9.80;99.90;;;;;;4833228;29;19924;-64
2023/04/22 01:25:54;;;;;;;;;;;9.70;99.90;;;;;;4838019;29;19924;-64
2023/04/22 01:28:20;;;;;;;;;;;9.70;99.90;;;;;;4844126;29;19943;-64
2023/04/22 01:30:47;;;;;;;;;;;9.70;99.90;;;;;;4847958;29;19924;-64
2023/04/22 01:33:14;;;;;;;;;;;9.70;99.90;;;;;;4841156;29;19962;-64
2023/04/22 01:35:40;;;;;;;;;;;9.70;99.90;;;;;;4839617;29;19965;-65
2023/04/22 01:38:07;;;;;;;;;;;9.70;99.90;;;;;;4843504;29;19921;-64
2023/04/22 01:40:33;;;;;;;;;;;9.60;99.90;;;;;;4843612;29;19920;-64
2023/04/22 01:42:59;;;;;;;;;;;9.70;99.90;;;;;;4835419;29;19928;-64
2023/04/22 01:45:24;;;;;;;;;;;9.70;99.90;;;;;;4838137;29;19988;-64
2023/04/22 01:47:50;;;;;;;;;;;9.70;99.90;;;;;;4840710;29;19972;-64
2023/04/22 01:50:16;;;;;;;;;;;9.60;99.90;;;;;;4846069;29;20658;-64
2023/04/22 01:52:41;;;;;;;;;;;9.70;99.90;;;;;;4840324;29;19998;-64
2023/04/22 01:55:07;;;;;;;;;;;9.60;99.90;;;;;;4843872;29;19932;-64
2023/04/22 01:57:33;;;;;;;;;;;9.60;99.90;;;;;;4839232;29;19923;-64
2023/04/22 01:59:59;;;;;;;;;;;9.40;99.90;;;;;;4838795;29;19924;-64
2023/04/22 02:02:25;;;;;;;;;;;9.30;99.90;;;;;;4847362;29;20397;-64
2023/04/22 02:04:50;;;;;;;;;;;9.30;99.90;;;;;;4841179;29;19916;-64
2023/04/22 02:07:16;;;;;;;;;;;9.30;99.90;;;;;;4847129;29;19915;-63
2023/04/22 02:09:41;;;;;;;;;;;9.20;99.90;;;;;;4846593;29;19923;-64
2023/04/22 02:12:07;;;;;;;;;;;9.20;99.90;;;;;;4847802;29;19916;-64
2023/04/22 02:14:32;;;;;;;;;;;9.30;99.90;;;;;;4842930;29;19917;-64
2023/04/22 02:16:58;;;;;;;;;;;9.30;99.90;;;;;;4840044;29;20326;-64
2023/04/22 02:19:24;;;;;;;;;;;9.40;99.90;;;;;;4847534;29;20397;-64
2023/04/22 02:21:49;;;;;;;;;;;9.40;99.90;;;;;;4847198;29;19920;-64
2023/04/22 02:24:15;;;;;;;;;;;9.40;99.90;;;;;;4841810;29;21858;-64
2023/04/22 02:26:42;;;;;;;;;;;9.40;99.90;;;;;;4839510;29;19924;-64
2023/04/22 02:29:07;;;;;;;;;;;9.40;99.90;;;;;;4846184;29;20019;-63
2023/04/22 02:31:33;;;;;;;;;;;9.40;99.90;;;;;;4839031;29;19995;-64
2023/04/22 02:33:58;;;;;;;;;;;9.50;99.90;;;;;;4840606;29;19919;-64
2023/04/22 02:36:24;;;;;;;;;;;9.50;99.90;;;;;;4848795;29;19916;-64
2023/04/22 02:38:49;;;;;;;;;;;9.50;99.90;;;;;;4850681;29;19920;-64
2023/04/22 02:41:15;;;;;;;;;;;9.50;99.90;;;;;;4848099;29;19923;-64
2023/04/22 02:43:44;;;;;;;;;;;9.50;99.90;;;;;;4847887;29;19964;-65
2023/04/22 02:46:11;;;;;;;;;;;9.50;99.90;;;;;;4841819;29;19920;-64
2023/04/22 02:48:37;;;;;;;;;;;9.50;99.90;;;;;;4841149;29;19927;-64
2023/04/22 02:51:03;;;;;;;;;;;9.50;99.90;;;;;;4843022;29;21333;-65
2023/04/22 02:53:28;;;;;;;;;;;9.50;99.90;;;;;;4848204;29;19920;-64
2023/04/22 02:55:55;;;;;;;;;;;9.50;99.90;;;;;;4851930;29;20570;-64
2023/04/22 02:58:21;;;;;;;;;;;9.50;99.90;;;;;;4844631;29;19916;-64
2023/04/22 03:00:46;;;;;;;;;;;9.60;99.90;;;;;;4849552;29;19928;-65
2023/04/22 03:03:12;;;;;;;;;;;9.60;99.90;;;;;;4847150;29;19927;-64
2023/04/22 03:05:37;;;;;;;;;;;9.60;99.90;;;;;;4842077;29;19984;-64
2023/04/22 03:08:03;;;;;;;;;;;9.70;99.90;;;;;;4843953;29;20385;-64
2023/04/22 03:10:28;;;;;;;;;;;9.70;99.90;;;;;;4850578;29;19916;-64
2023/04/22 03:12:54;;;;;;;;;;;9.70;99.90;;;;;;4845977;29;20480;-64
2023/04/22 03:15:20;;;;;;;;;;;9.70;99.90;;;;;;4848372;29;19927;-64
2023/04/22 03:17:45;;;;;;;;;;;9.60;99.90;;;;;;4843432;29;19920;-64
2023/04/22 03:20:11;;;;;;;;;;;9.50;99.90;;;;;;4843685;29;19935;-64
2023/04/22 03:22:37;;;;;;;;;;;9.50;99.90;;;;;;4844886;29;20388;-64
2023/04/22 03:25:03;;;;;;;;;;;9.50;99.90;;;;;;4850196;29;20000;-64
2023/04/22 03:27:28;;;;;;;;;;;9.50;99.90;;;;;;4839017;29;19920;-64
2023/04/22 03:29:54;;;;;;;;;;;9.50;99.90;;;;;;4845347;29;19916;-65
2023/04/22 03:32:19;;;;;;;;;;;9.50;99.90;;;;;;4843400;29;19920;-64
2023/04/22 03:34:45;;;;;;;;;;;9.50;99.90;;;;;;4844696;29;19916;-64
2023/04/22 03:37:10;;;;;;;;;;;9.50;99.90;;;;;;4842674;29;19916;-64
2023/04/22 03:39:36;;;;;;;;;;;9.50;99.90;;;;;;4845516;29;19928;-64
2023/04/22 03:42:01;;;;;;;;;;;9.50;99.90;;;;;;4845285;29;19920;-64
2023/04/22 03:44:27;;;;;;;;;;;9.50;99.90;;;;;;4840264;29;21168;-64
2023/04/22 03:46:52;;;;;;;;;;;9.50;99.90;;;;;;4842874;29;19916;-64
2023/04/22 03:49:18;;;;;;;;;;;9.50;99.90;;;;;;4849245;29;19947;-64
2023/04/22 03:51:43;;;;;;;;;;;9.50;99.90;;;;;;4844512;29;20445;-64
2023/04/22 03:54:09;;;;;;;;;;;9.50;99.90;;;;;;4845595;29;19927;-64
2023/04/22 03:56:35;;;;;;;;;;;9.50;99.90;;;;;;4841537;29;19916;-64
2023/04/22 03:59:01;;;;;;;;;;;9.60;99.90;;;;;;4844114;29;19978;-64
2023/04/22 04:01:26;;;;;;;;;;;9.60;99.90;;;;;;4843409;29;19924;-64
2023/04/22 04:03:52;;;;;;;;;;;9.60;99.90;;;;;;4840834;29;19916;-64
2023/04/22 04:06:17;;;;;;;;;;;9.60;99.90;;;;;;4843782;29;20393;-64
2023/04/22 04:08:43;;;;;;;;;;;9.70;99.90;;;;;;4847402;29;19916;-64
2023/04/22 04:11:08;;;;;;;;;;;9.70;99.90;;;;;;4846452;29;20647;-64
2023/04/22 04:13:34;;;;;;;;;;;9.80;99.90;;;;;;4842053;29;20007;-64
2023/04/22 04:16:00;;;;;;;;;;;9.70;99.90;;;;;;4838540;29;19915;-64
2023/04/22 04:18:25;;;;;;;;;;;9.70;99.90;;;;;;4830013;29;19916;-64
2023/04/22 04:20:51;;;;;;;;;;;9.70;99.90;;;;;;4844929;29;20425;-64
2023/04/22 04:23:16;;;;;;;;;;;9.70;99.90;;;;;;4846185;29;20428;-64
2023/04/22 04:25:42;;;;;;;;;;;9.70;99.90;;;;;;4839941;29;19920;-64
2023/04/22 04:28:09;;;;;;;;;;;9.60;99.90;;;;;;4834066;29;20449;-64
2023/04/22 04:30:36;;;;;;;;;;;9.70;99.90;;;;;;4834908;29;19967;-64
2023/04/22 04:33:05;;;;;;;;;;;9.70;99.90;;;;;;4833221;29;19939;-64
2023/04/22 04:35:34;;;;;;;;;;;9.70;99.90;;;;;;4833463;29;19916;-64
2023/04/22 04:38:01;;;;;;;;;;;9.70;99.90;;;;;;4832573;29;19920;-64
2023/04/22 04:40:28;;;;;;;;;;;9.60;99.90;;;;;;4836190;29;20007;-64
2023/04/22 04:42:54;;;;;;;;;;;9.60;99.90;;;;;;4834853;29;19920;-64
2023/04/22 04:45:21;;;;;;;;;;;9.70;99.90;;;;;;4834149;29;20012;-63
2023/04/22 04:47:49;;;;;;;;;;;9.80;99.90;;;;;;4830528;29;20488;-63
2023/04/22 04:50:15;;;;;;;;;;;9.80;99.90;;;;;;4833202;29;19931;-63
2023/04/22 04:52:40;;;;;;;;;;;9.80;99.90;;;;;;4834813;29;19920;-64
2023/04/22 04:55:06;;;;;;;;;;;9.90;99.90;;;;;;4832997;29;20401;-64
2023/04/22 04:57:32;;;;;;;;;;;10.00;99.90;;;;;;4832334;29;19955;-64
2023/04/22 04:59:57;;;;;;;;;;;10.10;99.90;;;;;;4836691;29;20446;-64
2023/04/22 05:02:23;;;;;;;;;;;10.10;99.90;;;;;;4822829;29;19920;-64
2023/04/22 05:04:48;;;;;;;;;;;10.00;99.90;;;;;;4832522;29;19920;-64
2023/04/22 05:07:14;;;;;;;;;;;10.10;99.90;;;;;;4833834;29;19920;-63
2023/04/22 05:09:39;;;;;;;;;;;10.20;99.90;;;;;;4832604;29;19918;-63
2023/04/22 05:12:05;;;;;;;;;;;10.30;99.90;;;;;;4837580;29;19920;-63
2023/04/22 05:14:30;;;;;;;;;;;10.60;99.90;;;;;;4832799;29;19912;-62
2023/04/22 05:16:56;;;;;;;;;;;10.70;99.90;;;;;;4833024;29;20416;-62
2023/04/22 05:19:21;;;;;;;;;;;10.90;99.90;;;;;;4826639;29;19931;-63
2023/04/22 05:21:47;;;;;;;;;;;11.10;99.90;;;;;;4832387;29;21779;-63
2023/04/22 05:24:12;;;;;;;;;;;11.30;99.90;;;;;;4832721;29;19972;-63
2023/04/22 05:26:38;;;;;;;;;;;11.40;99.90;;;;;;4834366;29;20020;-64
2023/04/22 05:29:04;;;;;;;;;;;11.50;99.90;;;;;;4833426;29;20858;-63
2023/04/22 05:31:29;;;;;;;;;;;11.50;99.90;;;;;;4831897;29;19989;-63
2023/04/22 05:33:55;;;;;;;;;;;11.60;99.90;;;;;;4835097;29;19920;-63
2023/04/22 05:36:20;;;;;;;;;;;11.70;99.90;;;;;;4830755;29;20448;-64
2023/04/22 05:38:46;;;;;;;;;;;11.80;99.90;;;;;;4831857;29;19916;-64
2023/04/22 05:41:11;;;;;;;;;;;11.90;99.90;;;;;;4836438;29;19928;-63
2023/04/22 05:43:37;;;;;;;;;;;12.00;99.90;;;;;;4832988;29;19916;-63
2023/04/22 05:46:02;;;;;;;;;;;12.20;99.90;;;;;;4830870;29;19957;-64
2023/04/22 05:48:28;;;;;;;;;;;12.30;99.90;;;;;;4837348;29;19952;-63
2023/04/22 05:50:53;;;;;;;;;;;12.50;99.90;;;;;;4831950;29;21209;-63
2023/04/22 05:53:19;;;;;;;;;;;12.70;99.90;;;;;;4833168;29;19920;-63
2023/04/22 05:55:44;;;;;;;;;;;12.90;99.90;;;;;;4841365;29;19916;-64
2023/04/22 05:58:10;;;;;;;;;;;13.00;99.90;;;;;;4831303;29;19927;-63
2023/04/22 06:00:35;;;;;;;;;;;13.10;99.90;;;;;;4829801;29;19923;-64
2023/04/22 06:03:01;;;;;;;;;;;13.20;99.90;;;;;;4839708;29;19920;-63
2023/04/22 06:05:27;;;;;;;;;;;13.40;99.90;;;;;;4831912;29;19968;-64
2023/04/22 06:07:52;;;;;;;;;;;13.50;99.90;;;;;;4832882;29;20022;-64
2023/04/22 06:10:18;;;;;;;;;;;13.70;99.90;;;;;;4835115;29;19927;-63
2023/04/22 06:12:43;;;;;;;;;;;13.90;99.90;;;;;;4833780;29;20683;-64
2023/04/22 06:15:10;;;;;;;;;;;14.10;99.90;;;;;;4845896;29;20348;-64
2023/04/22 06:17:36;;;;;;;;;;;14.30;99.90;;;;;;4842545;29;19952;-64
2023/04/22 06:20:01;;;;;;;;;;;14.50;99.90;;;;;;4830043;29;20019;-63
2023/04/22 06:22:27;;;;;;;;;;;14.60;99.90;;;;;;4832412;29;19976;-63
2023/04/22 06:24:52;;;;;;;;;;;14.70;99.90;;;;;;4834463;29;19915;-63
2023/04/22 06:27:18;;;;;;;;;;;14.80;99.90;;;;;;4841693;29;19912;-63
2023/04/22 06:29:43;;;;;;;;;;;15.00;99.90;;;;;;4840831;29;20029;-62
2023/04/22 06:32:09;;;;;;;;;;;15.10;99.90;;;;;;4839581;29;19920;-62
2023/04/22 06:34:34;;;;;;;;;;;15.20;99.90;;;;;;4838778;29;20381;-62
2023/04/22 06:36:59;;;;;;;;;;;15.30;99.90;;;;;;4843416;29;19975;-62
2023/04/22 06:39:25;;;;;;;;;;;15.40;99.90;;;;;;4843787;29;19916;-62
2023/04/22 06:41:50;;;;;;;;;;;15.50;99.50;;;;;;4844064;29;19927;-62
2023/04/22 06:44:16;;;;;;;;;;;15.60;98.60;;;;;;4848802;29;20552;-62
2023/04/22 06:46:41;;;;;;;;;;;15.70;97.50;;;;;;4837241;29;20014;-62
2023/04/22 06:49:07;;;;;;;;;;;15.60;96.80;;;;;;4825933;29;19920;-63
2023/04/22 06:51:32;;;;;;;;;;;15.60;94.80;;;;;;4841006;29;19920;-64
2023/04/22 06:53:58;;;;;;;;;;;15.70;95.10;;;;;;4839555;29;19920;-64
2023/04/22 06:56:24;;;;;;;;;;;15.80;94.90;;;;;;4840582;29;22196;-64
2023/04/22 06:58:50;;;;;;;;;;;15.90;96.90;;;;;;4831379;29;20033;-63
2023/04/22 07:01:15;;;;;;;;;;;15.90;95.20;;;;;;4817386;29;20598;-63
2023/04/22 07:03:41;;;;;;;;;;;15.90;95.90;;;;;;4840356;29;19915;-63
2023/04/22 07:06:07;;;;;;;;;;;16.10;93.60;;;;;;4829156;29;19964;-63
2023/04/22 07:08:32;;;;;;;;;;;16.10;92.00;;;;;;4838348;29;19916;-63
2023/04/22 07:10:58;;;;;;;;;;;16.20;92.00;;;;;;4840548;29;20362;-64
2023/04/22 07:13:23;;;;;;;;;;;16.30;92.10;;;;;;4847165;29;19928;-64
2023/04/22 07:15:49;;;;;;;;;;;16.40;90.90;;;;;;4846219;29;20648;-64
2023/04/22 07:18:14;;;;;;;;;;;16.50;92.00;;;;;;4844602;29;20159;-63
2023/04/22 07:20:40;;;;;;;;;;;16.60;91.90;;;;;;4846893;29;20354;-63
2023/04/22 07:23:05;;;;;;;;;;;16.80;90.00;;;;;;4843459;29;20022;-64
2023/04/22 07:25:31;;;;;;;;;;;16.80;90.80;;;;;;4843339;29;20290;-64
2023/04/22 07:27:56;;;;;;;;;;;16.70;91.10;;;;;;4848414;29;19932;-64
2023/04/22 07:30:22;;;;;;;;;;;16.70;93.20;;;;;;4842255;29;19920;-62
2023/04/22 07:32:47;;;;;;;;;;;16.80;92.50;;;;;;4839301;29;19912;-63
2023/04/22 07:35:13;;;;;;;;;;;16.80;91.90;;;;;;4851161;29;21762;-62
2023/04/22 07:37:38;;;;;;;;;;;16.90;92.60;;;;;;4840258;29;19918;-62
2023/04/22 07:40:04;;;;;;;;;;;17.10;92.60;;;;;;4838165;29;19916;-62
2023/04/22 07:42:30;;;;;;;;;;;17.20;91.50;;;;;;4846849;29;19974;-62
2023/04/22 07:44:55;;;;;;;;;;;17.40;90.80;;;;;;4839897;29;20472;-63
2023/04/22 07:47:21;;;;;;;;;;;17.60;89.30;;;;;;4840421;29;20019;-64
2023/04/22 07:49:47;;;;;;;;;;;17.60;87.20;;;;;;4846050;29;19988;-64
2023/04/22 07:52:12;;;;;;;;;;;17.50;87.30;;;;;;4842873;29;19927;-63
2023/04/22 07:54:38;;;;;;;;;;;17.50;87.60;;;;;;4843585;29;19954;-63
2023/04/22 07:57:03;;;;;;;;;;;17.60;84.00;;;;;;4842899;29;20354;-64
2023/04/22 07:59:29;;;;;;;;;;;17.70;79.60;;;;;;4836286;29;19930;-63
2023/04/22 08:01:54;;;;;;;;;;;17.70;78.30;;;;;;4840230;29;20460;-63
2023/04/22 08:04:23;;;;;;;;;;;17.70;78.30;;;;;;4842397;29;20010;-64
2023/04/22 08:06:48;;;;;;;;;;;17.80;78.10;;;;;;4837615;29;19924;-62
2023/04/22 08:09:14;;;;;;;;;;;17.90;78.30;;;;;;4836919;29;19912;-63
2023/04/22 08:11:39;;;;;;;;;;;17.80;79.80;;;;;;4844727;29;19919;-62
2023/04/22 08:14:05;;;;;;;;;;;17.80;79.80;;;;;;4850188;29;20019;-62
2023/04/22 08:16:31;;;;;;;;;;;17.80;79.00;;;;;;4840720;29;20567;-63
2023/04/22 08:18:56;;;;;;;;;;;17.90;80.00;;;;;;4839271;29;20408;-63
2023/04/22 08:21:22;;;;;;;;;;;18.00;79.30;;;;;;4840427;29;19970;-62
2023/04/22 08:23:47;;;;;;;;;;;18.10;76.70;;;;;;4845156;29;19922;-62
2023/04/22 08:26:15;;;;;;;;;;;18.10;80.00;;;;;;4847654;29;19916;-62
2023/04/22 08:28:41;;;;;;;;;;;18.20;79.10;;;;;;4843109;29;20438;-63
2023/04/22 08:31:08;;;;;;;;;;;18.20;80.10;;;;;;4847265;29;20343;-63
2023/04/22 08:33:33;;;;;;;;;;;18.30;81.40;;;;;;4841457;29;19919;-62
2023/04/22 08:35:59;;;;;;;;;;;18.40;78.70;;;;;;4846136;29;20400;-62
2023/04/22 08:38:25;;;;;;;;;;;18.50;80.40;;;;;;4839595;29;19913;-62
2023/04/22 08:40:50;;;;;;;;;;;18.60;77.00;;;;;;4838241;29;19924;-62
2023/04/22 08:43:16;;;;;;;;;;;18.70;75.00;;;;;;4844458;29;19916;-62
2023/04/22 08:45:43;;;;;;;;;;;18.70;71.30;;;;;;4839578;29;20200;-62
2023/04/22 08:48:10;;;;;;;;;;;18.80;72.90;;;;;;4842697;29;20011;-62
2023/04/22 08:50:37;;;;;;;;;;;18.70;67.50;;;;;;4842884;29;19931;-62
2023/04/22 08:53:02;;;;;;;;;;;18.60;66.70;;;;;;4841185;29;19916;-62
2023/04/22 08:55:28;;;;;;;;;;;18.50;69.10;;;;;;4824471;29;20405;-63
2023/04/22 08:57:54;;;;;;;;;;;18.50;71.00;;;;;;4837957;29;19920;-62
2023/04/22 09:00:20;;;;;;;;;;;18.70;69.30;;;;;;4829548;29;19935;-63
2023/04/22 09:02:46;;;;;;;;;;;18.70;64.90;;;;;;4833968;29;19920;-63
2023/04/22 09:05:12;;;;;;;;;;;18.70;63.90;;;;;;4842941;29;19920;-61
2023/04/22 09:07:38;;;;;;;;;;;18.80;69.20;;;;;;4850734;29;19992;-61
2023/04/22 09:10:04;;;;;;;;;;;19.00;67.30;;;;;;4854483;29;20377;-62
2023/04/22 09:12:30;;;;;;;;;;;19.00;68.90;;;;;;4845949;29;20000;-62
2023/04/22 09:14:55;;;;;;;;;;;19.10;65.40;;;;;;4845774;29;20023;-62
2023/04/22 09:17:31;;;;;;;;;;;19.20;66.50;;;;;;4843789;29;20288;-62
2023/04/22 09:20:00;;;;;;;;;;;19.30;69.90;;;;;;4842052;29;20057;-62
2023/04/22 09:22:27;;;;;;;;;;;19.40;62.60;;;;;;4843939;29;20334;-62
2023/04/22 09:24:52;;;;;;;;;;;19.40;59.20;;;;;;4846158;29;19916;-62
2023/04/22 09:27:18;;;;;;;;;;;19.40;61.90;;;;;;4849448;29;20306;-62
2023/04/22 09:29:48;;;;;;;;;;;19.50;62.80;;;;;;4842995;29;19927;-61
2023/04/22 09:32:14;;;;;;;;;;;19.50;60.00;;;;;;4840965;29;20389;-62
2023/04/22 09:34:50;;;;;;;;;;;19.50;61.40;;;;;;4844671;29;19919;-62
2023/04/22 09:37:25;;;;;;;;;;;19.50;59.70;;;;;;4820176;29;19920;-62
2023/04/22 09:39:51;;;;;;;;;;;19.60;64.40;;;;;;4850220;29;19927;-62
2023/04/22 09:42:17;;;;;;;;;;;19.70;59.30;;;;;;4845659;29;20426;-63
2023/04/22 09:44:47;;;;;;;;;;;19.70;62.50;;;;;;4842279;29;20006;-62
2023/04/22 09:47:12;;;;;;;;;;;19.80;66.40;;;;;;4849304;29;19916;-62
2023/04/22 09:49:38;;;;;;;;;;;20.00;59.90;;;;;;4846232;29;20395;-62
2023/04/22 09:52:04;;;;;;;;;;;19.90;58.70;;;;;;4846990;29;19916;-62
2023/04/22 09:54:30;;;;;;;;;;;19.80;59.80;;;;;;4837158;29;19920;-62
2023/04/22 09:56:55;;;;;;;;;;;19.90;59.70;;;;;;4843888;29;19912;-62
2023/04/22 09:59:21;;;;;;;;;;;20.00;60.70;;;;;;4839053;29;20046;-62
2023/04/22 10:01:47;;;;;;;;;;;20.10;61.40;;;;;;4846494;29;19947;-62
2023/04/22 10:04:14;;;;;;;;;;;20.20;59.20;;;;;;4845136;29;19920;-62
2023/04/22 10:06:40;;;;;;;;;;;20.20;56.90;;;;;;4847286;29;20136;-62
2023/04/22 10:09:06;;;;;;;;;;;20.20;60.70;;;;;;4850411;29;19912;-63
2023/04/22 10:11:32;;;;;;;;;;;20.30;56.30;;;;;;4845068;29;19915;-62
2023/04/22 10:13:59;;;;;;;;;;;20.20;55.20;;;;;;4840045;29;19912;-63
2023/04/22 10:16:26;;;;;;;;;;;20.10;55.70;;;;;;4836097;29;19920;-62
2023/04/22 10:18:53;;;;;;;;;;;20.10;58.30;;;;;;4841989;29;19920;-62
2023/04/22 10:21:19;;;;;;;;;;;20.30;59.10;;;;;;4828552;29;19955;-62
2023/04/22 10:23:45;;;;;;;;;;;20.40;58.90;;;;;;4842013;29;20516;-62
2023/04/22 10:26:11;;;;;;;;;;;20.40;59.30;;;;;;4848722;29;20389;-62
2023/04/22 10:28:42;;;;;;;;;;;20.40;60.10;;;;;;4843008;29;20019;-62
2023/04/22 10:31:19;;;;;;;;;;;20.40;60.60;;;;;;4846792;29;19916;-63
2023/04/22 10:33:45;;;;;;;;;;;20.60;64.30;;;;;;4844977;29;20017;-62
2023/04/22 10:36:13;;;;;;;;;;;20.60;57.70;;;;;;4853355;29;19920;-63
2023/04/22 10:38:54;;;;;;;;;;;20.50;56.10;;;;;;4836333;29;20642;-63
2023/04/22 10:41:28;;;;;;;;;;;20.20;55.60;;;;;;4853848;29;20404;-63
2023/04/22 10:43:57;;;;;;;;;;;20.10;58.50;;;;;;4845862;29;20398;-62
2023/04/22 10:46:31;;;;;;;;;;;20.10;55.20;;;;;;4831650;29;19912;-62
2023/04/22 10:49:19;;;;;;;;;;;20.00;55.70;;;;;;4845672;29;21272;-63
2023/04/22 10:51:44;;;;;;;;;;;20.00;58.30;;;;;;4849258;29;20343;-62
2023/04/22 10:54:28;;;;;;;;;;;20.20;56.30;;;;;;4849739;29;19920;-62
2023/04/22 10:57:18;;;;;;;;;;;20.30;59.40;;;;;;4844825;29;19915;-62
2023/04/22 10:59:54;;;;;;;;;;;20.50;57.80;;;;;;4847024;29;20551;-62
2023/04/22 11:02:20;;;;;;;;;;;20.60;58.30;;;;;;4847903;29;19921;-62
2023/04/22 11:04:46;;;;;;;;;;;20.60;59.00;;;;;;4845067;29;19912;-62
2023/04/22 11:07:16;;;;;;;;;;;20.60;58.20;;;;;;4844019;29;20445;-62
2023/04/22 11:09:52;;;;;;;;;;;20.50;56.80;;;;;;4851489;29;19918;-62
2023/04/22 11:12:40;;;;;;;;;;;20.40;57.50;;;;;;4845893;29;20719;-62
2023/04/22 11:15:08;;;;;;;;;;;20.30;56.40;;;;;;4847074;29;19916;-62
2023/04/22 11:17:35;;;;;;;;;;;20.10;57.00;;;;;;4842152;29;19927;-62
2023/04/22 11:20:01;;;;;;;;;;;20.10;60.50;;;;;;4848980;29;19920;-62
2023/04/22 11:22:26;;;;;;;;;;;20.10;57.20;;;;;;4851266;29;19919;-62
2023/04/22 11:24:55;;;;;;;;;;;20.10;55.60;;;;;;4854962;29;19930;-62
2023/04/22 11:27:26;;;;;;;;;;;20.10;56.20;;;;;;4852814;29;19927;-63
2023/04/22 11:30:08;;;;;;;;;;;20.10;55.30;;;;;;4848529;29;20358;-64
2023/04/22 11:32:35;;;;;;;;;;;20.10;58.90;;;;;;4846365;29;20261;-62
2023/04/22 11:35:20;;;;;;;;;;;19.90;61.80;;;;;;4849446;29;19919;-63
2023/04/22 11:37:46;;;;;;;;;;;19.70;69.10;;;;;;4848476;29;20264;-63
2023/04/22 11:40:13;;;;;;;;;;;19.60;66.40;;;;;;4851249;29;19987;-63
2023/04/22 11:42:39;;;;;;;;;;;19.60;67.10;;;;;;4846429;29;19998;-62
2023/04/22 11:45:05;;;;;;;;;;;19.50;66.90;;;;;;4843847;29;20602;-62
2023/04/22 11:47:31;;;;;;;;;;;19.60;67.90;;;;;;4846153;29;20397;-62
2023/04/22 11:49:58;;;;;;;;;;;19.60;68.30;;;;;;4845409;29;19920;-63
2023/04/22 11:52:25;;;;;;;;;;;19.60;69.40;;;;;;4848575;29;19919;-62
2023/04/22 11:54:50;;;;;;;;;;;19.50;69.50;;;;;;4843215;29;19920;-63
2023/04/22 11:57:16;;;;;;;;;;;19.60;67.20;;;;;;4843352;29;19937;-62
2023/04/22 11:59:42;;;;;;;;;;;19.70;65.40;;;;;;4839411;29;19923;-63
2023/04/22 12:02:08;;;;;;;;;;;19.60;69.20;;;;;;4850351;29;19920;-62
2023/04/22 12:04:40;;;;;;;;;;;19.70;66.10;;;;;;4845860;29;19920;-62
2023/04/22 12:07:06;;;;;;;;;;;19.60;70.50;;;;;;4848148;29;20103;-62
2023/04/22 12:09:32;;;;;;;;;;;19.50;65.50;;;;;;4847389;29;20816;-62
2023/04/22 12:11:58;;;;;;;;;;;19.60;63.30;;;;;;4844488;29;19919;-62
2023/04/22 12:14:30;;;;;;;;;;;19.50;65.60;;;;;;4843187;29;19932;-62
2023/04/22 12:16:56;;;;;;;;;;;19.60;65.90;;;;;;4843347;29;19938;-62
2023/04/22 12:19:27;;;;;;;;;;;19.70;62.90;;;;;;4846441;29;20487;-62
2023/04/22 12:21:56;;;;;;;;;;;19.70;66.40;;;;;;4833398;29;19923;-63
2023/04/22 12:24:26;;;;;;;;;;;19.70;63.00;;;;;;4844907;29;19992;-63
2023/04/22 12:26:51;;;;;;;;;;;19.70;60.10;;;;;;4836513;29;20600;-63
2023/04/22 12:29:25;;;;;;;;;;;19.70;62.10;;;;;;4843867;29;19916;-63
2023/04/22 12:31:50;;;;;;;;;;;19.70;61.50;;;;;;4845139;29;20010;-63
2023/04/22 12:34:16;;;;;;;;;;;19.70;62.60;;;;;;4845441;29;20027;-63
2023/04/22 12:36:41;;;;;;;;;;;19.70;64.10;;;;;;4849210;29;20404;-63
2023/04/22 12:39:07;;;;;;;;;;;19.70;66.20;;;;;;4840110;29;19919;-62
2023/04/22 12:41:32;;;;;;;;;;;19.70;63.60;;;;;;4846049;29;19924;-63
2023/04/22 12:43:58;;;;;;;;;;;19.80;63.10;;;;;;4840482;29;19927;-62
2023/04/22 12:46:23;;;;;;;;;;;19.90;63.80;;;;;;4843719;29;20023;-63
2023/04/22 12:48:49;;;;;;;;;;;20.00;60.10;;;;;;4845040;29;19920;-63
2023/04/22 12:51:14;;;;;;;;;;;20.00;58.40;;;;;;4845036;29;20023;-62
2023/04/22 12:53:40;;;;;;;;;;;20.10;58.80;;;;;;4843142;29;20030;-63
2023/04/22 12:56:05;;;;;;;;;;;20.10;59.70;;;;;;4847504;29;19995;-63
2023/04/22 12:58:31;;;;;;;;;;;20.00;58.10;;;;;;4839059;29;20023;-64
2023/04/22 13:00:56;;;;;;;;;;;20.00;56.60;;;;;;4837485;29;20471;-63
2023/04/22 13:03:22;;;;;;;;;;;20.00;57.70;;;;;;4838768;29;19998;-65
2023/04/22 13:05:47;;;;;;;;;;;20.00;59.20;;;;;;4833533;29;20321;-63
2023/04/22 13:08:13;;;;;;;;;;;20.00;59.70;;;;;;4828483;29;19920;-63
2023/04/22 13:10:39;;;;;;;;;;;20.10;57.60;;;;;;4813449;29;19912;-63
2023/04/22 13:13:05;;;;;;;;;;;20.00;57.70;;;;;;4835504;29;19984;-63
2023/04/22 13:15:31;;;;;;;;;;;20.10;59.80;;;;;;4844657;29;19916;-62
2023/04/22 13:17:57;;;;;;;;;;;20.10;60.10;;;;;;4850181;29;19943;-63
2023/04/22 13:20:22;;;;;;;;;;;20.10;59.00;;;;;;4844396;29;20382;-64
2023/04/22 13:22:48;;;;;;;;;;;20.20;59.50;;;;;;4845896;29;20568;-63
2023/04/22 13:25:14;;;;;;;;;;;20.30;56.10;;;;;;4849443;29;19920;-63
2023/04/22 13:27:40;;;;;;;;;;;20.20;58.20;;;;;;4839885;29;20014;-62
2023/04/22 13:30:06;;;;;;;;;;;20.20;58.30;;;;;;4845763;29;20018;-63
2023/04/22 13:32:32;;;;;;;;;;;20.10;58.10;;;;;;4839993;29;19923;-63
2023/04/22 13:34:57;;;;;;;;;;;20.10;58.50;;;;;;4841240;29;19916;-62
2023/04/22 13:37:23;;;;;;;;;;;20.10;56.50;;;;;;4840997;29;20522;-61
2023/04/22 13:39:48;;;;;;;;;;;20.10;57.20;;;;;;4848279;29;19948;-61
2023/04/22 13:42:14;;;;;;;;;;;20.30;55.80;;;;;;4839835;29;19909;-61
2023/04/22 13:44:40;;;;;;;;;;;20.30;56.90;;;;;;4839529;29;19919;-61
2023/04/22 13:47:05;;;;;;;;;;;20.30;55.40;;;;;;4847314;29;19916;-61
2023/04/22 13:49:31;;;;;;;;;;;20.20;54.50;;;;;;4844907;29;19920;-61
2023/04/22 13:51:56;;;;;;;;;;;20.20;56.70;;;;;;4837833;29;20524;-62
2023/04/22 13:54:22;;;;;;;;;;;20.20;57.70;;;;;;4838571;29;19964;-61
2023/04/22 13:56:48;;;;;;;;;;;20.20;58.10;;;;;;4835949;29;19916;-61
2023/04/22 13:59:14;;;;;;;;;;;20.10;56.20;;;;;;4835397;29;20455;-62
2023/04/22 14:01:40;;;;;;;;;;;20.10;56.80;;;;;;4833153;29;19976;-61
2023/04/22 14:04:05;;;;;;;;;;;20.10;58.50;;;;;;4831397;29;19919;-61
2023/04/22 14:06:31;;;;;;;;;;;20.10;58.20;;;;;;4832243;29;19931;-62
2023/04/22 14:08:56;;;;;;;;;;;20.10;55.80;;;;;;4819158;29;19920;-61
2023/04/22 14:11:22;;;;;;;;;;;20.10;59.20;;;;;;4832443;29;19920;-62
2023/04/22 14:13:48;;;;;;;;;;;20.10;59.50;;;;;;4834722;29;19923;-62
2023/04/22 14:16:13;;;;;;;;;;;20.10;56.90;;;;;;4837142;29;19920;-62